Time;durP1;ratioP1;P1;durP2;ratioP2;P2;SDS_P1;SDS_P2;PMS_P1;PMS_P2;Temp;Humidity;BMP_temperature;BMP_pressure;BME280_temperature;BME280_humidity;BME280_pressure;Samples;Min_cycle;Max_cycle;Signal;HPM_P1;HPM_P2
2021/04/19 00:01:36;;;;;;;12.77;11.47;;;;;;;;;;5078620;28;21225;-78
2021/04/19 00:04:02;;;;;;;11.57;10.40;;;;;;;;;;5077187;28;20463;-79
2021/04/19 00:06:28;;;;;;;13.02;11.20;;;;;;;;;;5079144;28;20181;-77
2021/04/19 00:08:54;;;;;;;15.60;11.03;;;;;;;;;;5079041;28;20182;-79
2021/04/19 00:11:20;;;;;;;15.37;11.53;;;;;;;;;;5062841;28;20419;-79
2021/04/19 00:13:46;;;;;;;12.63;11.38;;;;;;;;;;5080639;28;20445;-79
2021/04/19 00:16:13;;;;;;;19.08;11.35;;;;;;;;;;5077532;28;20218;-80
2021/04/19 00:18:39;;;;;;;12.25;10.50;;;;;;;;;;5079803;28;20201;-80
2021/04/19 00:21:05;;;;;;;13.03;10.27;;;;;;;;;;5077539;28;20181;-80
2021/04/19 00:23:31;;;;;;;15.20;12.20;;;;;;;;;;5076084;28;20572;-79
2021/04/19 00:25:57;;;;;;;11.73;10.57;;;;;;;;;;5078608;28;20185;-80
2021/04/19 00:28:23;;;;;;;13.32;11.55;;;;;;;;;;5080641;28;20593;-79
2021/04/19 00:30:49;;;;;;;12.37;10.90;;;;;;;;;;5075389;28;20244;-80
2021/04/19 00:33:15;;;;;;;12.10;10.37;;;;;;;;;;5078060;28;20460;-79
2021/04/19 00:35:41;;;;;;;18.77;10.30;;;;;;;;;;5078578;28;20442;-79
2021/04/19 00:38:07;;;;;;;14.70;11.75;;;;;;;;;;5077588;28;20516;-80
2021/04/19 00:40:33;;;;;;;13.20;10.87;;;;;;;;;;5080873;28;20279;-80
2021/04/19 00:43:00;;;;;;;13.52;10.65;;;;;;;;;;5062672;28;20447;-80
2021/04/19 00:45:26;;;;;;;18.17;10.27;;;;;;;;;;5081522;28;20639;-77
2021/04/19 00:47:52;;;;;;;13.97;9.50;;;;;;;;;;5080190;28;20236;-78
2021/04/19 00:50:19;;;;;;;13.10;11.60;;;;;;;;;;5079984;28;20450;-79
2021/04/19 00:52:46;;;;;;;14.70;10.85;;;;;;;;;;5078466;28;20204;-79
2021/04/19 00:55:13;;;;;;;13.27;10.18;;;;;;;;;;5062301;28;20183;-80
2021/04/19 00:57:39;;;;;;;15.50;10.95;;;;;;;;;;5084634;28;20267;-80
2021/04/19 01:00:10;;;;;;;11.75;10.60;;;;;;;;;;5090067;28;20184;-79
2021/04/19 01:02:37;;;;;;;11.52;10.27;;;;;;;;;;5083081;28;20575;-79
2021/04/19 01:05:04;;;;;;;16.75;10.15;;;;;;;;;;5082074;28;20329;-79
2021/04/19 01:07:30;;;;;;;11.82;9.45;;;;;;;;;;5082867;28;20238;-78
2021/04/19 01:09:56;;;;;;;13.30;10.23;;;;;;;;;;5078116;28;20184;-80
2021/04/19 01:12:22;;;;;;;13.30;10.80;;;;;;;;;;5083062;28;20462;-79
2021/04/19 01:14:48;;;;;;;11.37;9.63;;;;;;;;;;5073611;28;20443;-79
2021/04/19 01:17:14;;;;;;;11.07;9.80;;;;;;;;;;5079394;28;20426;-80
2021/04/19 01:19:40;;;;;;;10.37;8.80;;;;;;;;;;5083698;28;20794;-80
2021/04/19 01:22:07;;;;;;;14.07;10.77;;;;;;;;;;5079258;28;20454;-79
2021/04/19 01:24:32;;;;;;;11.73;9.98;;;;;;;;;;5082279;28;20914;-78
2021/04/19 01:26:58;;;;;;;10.70;9.20;;;;;;;;;;5089542;28;20215;-80
2021/04/19 01:29:24;;;;;;;12.00;8.83;;;;;;;;;;5077238;28;20433;-80
2021/04/19 01:31:50;;;;;;;12.17;9.83;;;;;;;;;;5070010;28;20508;-80
2021/04/19 01:34:16;;;;;;;12.90;9.03;;;;;;;;;;5081497;28;20461;-80
2021/04/19 01:36:44;;;;;;;10.93;9.00;;;;;;;;;;5075017;28;20439;-79
2021/04/19 01:39:16;;;;;;;11.20;8.50;;;;;;;;;;5081937;28;20438;-80
2021/04/19 01:41:42;;;;;;;10.70;9.10;;;;;;;;;;5083036;28;20177;-79
2021/04/19 01:44:08;;;;;;;14.13;9.82;;;;;;;;;;5082709;28;20230;-80
2021/04/19 01:46:34;;;;;;;10.70;9.70;;;;;;;;;;5083638;28;20181;-79
2021/04/19 01:49:00;;;;;;;9.95;8.40;;;;;;;;;;5081562;28;20496;-79
2021/04/19 01:51:27;;;;;;;12.07;8.80;;;;;;;;;;5081657;28;20222;-77
2021/04/19 01:53:53;;;;;;;18.90;9.70;;;;;;;;;;5090059;28;20406;-76
2021/04/19 01:56:19;;;;;;;14.20;9.20;;;;;;;;;;5099324;28;20191;-75
2021/04/19 01:58:45;;;;;;;15.37;9.77;;;;;;;;;;5118025;28;20192;-74
2021/04/19 02:01:11;;;;;;;9.13;7.60;;;;;;;;;;5098377;28;20498;-76
2021/04/19 02:03:43;;;;;;;13.63;9.10;;;;;;;;;;5086775;28;20465;-79
2021/04/19 02:06:28;;;;;;;10.95;9.70;;;;;;;;;;5081926;28;20183;-79
2021/04/19 02:09:13;;;;;;;10.40;8.82;;;;;;;;;;5078450;28;20173;-77
2021/04/19 02:11:47;;;;;;;10.20;8.02;;;;;;;;;;5082114;28;20615;-80
2021/04/19 02:14:23;;;;;;;10.10;8.85;;;;;;;;;;5082633;28;20211;-79
2021/04/19 02:16:55;;;;;;;8.48;7.63;;;;;;;;;;5083069;28;20183;-80
2021/04/19 02:19:38;;;;;;;11.60;9.05;;;;;;;;;;5077832;28;20247;-77
2021/04/19 02:22:10;;;;;;;9.80;7.82;;;;;;;;;;5096817;28;20211;-79
2021/04/19 02:24:39;;;;;;;12.55;8.40;;;;;;;;;;5076173;28;20246;-77
2021/04/19 02:27:09;;;;;;;16.85;8.43;;;;;;;;;;5082012;28;20188;-80
2021/04/19 02:29:43;;;;;;;10.18;7.55;;;;;;;;;;5094717;28;20207;-78
2021/04/19 02:32:22;;;;;;;10.35;7.18;;;;;;;;;;5074960;28;20197;-79
2021/04/19 02:34:50;;;;;;;9.85;8.15;;;;;;;;;;5085835;28;20204;-77
2021/04/19 02:37:17;;;;;;;10.30;8.15;;;;;;;;;;5095008;28;20193;-77
2021/04/19 02:39:44;;;;;;;10.40;8.45;;;;;;;;;;5091907;28;20184;-77
2021/04/19 02:42:11;;;;;;;8.43;7.13;;;;;;;;;;5081504;28;20199;-80
2021/04/19 02:44:38;;;;;;;10.98;8.95;;;;;;;;;;5096899;28;20201;-78
2021/04/19 02:47:05;;;;;;;8.52;7.70;;;;;;;;;;5093976;28;20176;-80
2021/04/19 02:49:33;;;;;;;11.20;9.45;;;;;;;;;;5081339;28;20189;-78
2021/04/19 02:52:01;;;;;;;12.13;8.32;;;;;;;;;;5080048;28;20204;-80
2021/04/19 02:54:28;;;;;;;9.63;7.20;;;;;;;;;;5080222;28;20177;-79
2021/04/19 02:56:54;;;;;;;9.32;8.18;;;;;;;;;;5084801;28;20544;-80
2021/04/19 02:59:23;;;;;;;8.90;7.65;;;;;;;;;;5083530;28;20189;-79
2021/04/19 03:01:50;;;;;;;16.27;9.50;;;;;;;;;;5093962;28;20193;-79
2021/04/19 03:04:18;;;;;;;19.20;10.35;;;;;;;;;;5060412;28;20230;-79
2021/04/19 03:06:48;;;;;;;9.05;7.80;;;;;;;;;;5079030;28;20231;-79
2021/04/19 03:09:16;;;;;;;9.68;7.80;;;;;;;;;;5078851;28;20181;-78
2021/04/19 03:11:59;;;;;;;15.65;8.68;;;;;;;;;;5080530;28;20180;-80
2021/04/19 03:14:26;;;;;;;8.82;7.15;;;;;;;;;;5095043;28;20186;-80
2021/04/19 03:16:58;;;;;;;11.45;8.63;;;;;;;;;;5094363;28;20215;-77
2021/04/19 03:19:25;;;;;;;11.00;8.90;;;;;;;;;;5094037;28;20173;-77
2021/04/19 03:21:53;;;;;;;10.10;7.90;;;;;;;;;;5095373;28;20192;-77
2021/04/19 03:24:19;;;;;;;9.43;7.88;;;;;;;;;;5092695;28;20216;-76
2021/04/19 03:26:46;;;;;;;9.50;7.18;;;;;;;;;;5070551;28;20522;-79
2021/04/19 03:29:12;;;;;;;8.95;7.57;;;;;;;;;;5081543;28;20259;-78
2021/04/19 03:31:41;;;;;;;10.45;6.97;;;;;;;;;;5080037;28;20173;-78
2021/04/19 03:34:11;;;;;;;9.73;7.68;;;;;;;;;;5080757;28;20185;-79
2021/04/19 03:36:37;;;;;;;13.25;8.65;;;;;;;;;;5082422;28;20188;-78
2021/04/19 03:39:04;;;;;;;9.13;7.18;;;;;;;;;;5082233;28;20591;-80
2021/04/19 03:41:32;;;;;;;10.20;8.55;;;;;;;;;;5080985;28;20182;-79
2021/04/19 03:43:59;;;;;;;10.57;7.78;;;;;;;;;;5080477;28;20198;-80
2021/04/19 03:46:26;;;;;;;8.95;7.43;;;;;;;;;;5088550;28;20186;-79
2021/04/19 03:49:01;;;;;;;9.63;8.60;;;;;;;;;;5084005;28;20538;-79
2021/04/19 03:51:27;;;;;;;8.40;7.55;;;;;;;;;;5081072;28;20235;-78
2021/04/19 03:53:55;;;;;;;10.52;7.40;;;;;;;;;;5079306;28;20178;-80
2021/04/19 03:56:21;;;;;;;10.02;7.20;;;;;;;;;;5081833;28;20177;-78
2021/04/19 03:58:48;;;;;;;13.93;8.23;;;;;;;;;;5080010;28;20249;-79
2021/04/19 04:01:15;;;;;;;9.77;8.77;;;;;;;;;;5082864;28;20170;-79
2021/04/19 04:03:42;;;;;;;10.00;8.55;;;;;;;;;;5081502;28;20645;-80
2021/04/19 04:06:10;;;;;;;13.98;9.35;;;;;;;;;;5083397;28;20551;-80
2021/04/19 04:08:36;;;;;;;15.98;8.15;;;;;;;;;;5087385;28;20548;-80
2021/04/19 04:11:02;;;;;;;10.05;8.05;;;;;;;;;;5089889;28;20173;-79
2021/04/19 04:13:29;;;;;;;9.90;8.10;;;;;;;;;;5078389;28;20279;-79
2021/04/19 04:15:57;;;;;;;11.35;9.40;;;;;;;;;;5095498;28;20216;-79
2021/04/19 04:18:23;;;;;;;13.23;8.52;;;;;;;;;;5078926;28;20194;-77
2021/04/19 04:20:49;;;;;;;12.57;9.43;;;;;;;;;;5077244;28;20269;-78
2021/04/19 04:23:16;;;;;;;11.67;9.17;;;;;;;;;;5073609;28;20473;-79
2021/04/19 04:25:42;;;;;;;11.60;9.57;;;;;;;;;;5078301;28;20459;-79
2021/04/19 04:28:08;;;;;;;13.38;10.05;;;;;;;;;;5082519;28;20176;-79
2021/04/19 04:30:35;;;;;;;10.55;9.55;;;;;;;;;;5092633;28;20181;-76
2021/04/19 04:33:05;;;;;;;11.60;10.40;;;;;;;;;;5073436;28;20204;-75
2021/04/19 04:35:31;;;;;;;10.88;9.85;;;;;;;;;;5073909;28;20195;-75
2021/04/19 04:37:58;;;;;;;13.35;9.82;;;;;;;;;;5075299;28;20547;-76
2021/04/19 04:40:27;;;;;;;9.90;8.85;;;;;;;;;;5073474;28;20182;-75
2021/04/19 04:42:55;;;;;;;11.82;10.55;;;;;;;;;;5078657;28;20308;-75
2021/04/19 04:45:21;;;;;;;15.90;10.80;;;;;;;;;;5083670;28;20220;-77
2021/04/19 04:48:05;;;;;;;13.27;10.70;;;;;;;;;;5071692;28;20177;-76
2021/04/19 04:51:04;;;;;;;12.80;11.18;;;;;;;;;;5072981;28;20817;-77
2021/04/19 04:53:35;;;;;;;11.68;10.45;;;;;;;;;;5047854;28;20263;-77
2021/04/19 04:56:01;;;;;;;12.55;9.73;;;;;;;;;;5074908;28;20182;-76
2021/04/19 04:58:28;;;;;;;13.25;10.63;;;;;;;;;;5072712;28;20262;-77
2021/04/19 05:00:54;;;;;;;12.05;10.15;;;;;;;;;;5066834;28;20181;-77
2021/04/19 05:03:20;;;;;;;12.15;10.85;;;;;;;;;;5073059;28;20682;-76
2021/04/19 05:05:47;;;;;;;12.73;11.32;;;;;;;;;;5082173;28;20201;-77
2021/04/19 05:08:13;;;;;;;15.27;10.05;;;;;;;;;;5072495;28;20173;-77
2021/04/19 05:10:40;;;;;;;12.13;10.82;;;;;;;;;;5074380;28;20517;-77
2021/04/19 05:13:18;;;;;;;15.95;11.07;;;;;;;;;;5066522;28;20221;-78
2021/04/19 05:15:45;;;;;;;19.17;12.60;;;;;;;;;;5078598;28;20185;-77
2021/04/19 05:18:14;;;;;;;15.57;12.98;;;;;;;;;;5069323;28;20234;-77
2021/04/19 05:20:41;;;;;;;18.90;14.60;;;;;;;;;;5056135;28;20185;-76
2021/04/19 05:23:08;;;;;;;15.95;14.07;;;;;;;;;;5073909;28;20204;-76
2021/04/19 05:25:34;;;;;;;19.75;13.30;;;;;;;;;;5084123;28;20619;-76
2021/04/19 05:28:01;;;;;;;20.08;14.45;;;;;;;;;;5094848;28;20192;-76
2021/04/19 05:30:27;;;;;;;14.18;12.63;;;;;;;;;;5074033;28;20187;-76
2021/04/19 05:32:53;;;;;;;27.38;14.20;;;;;;;;;;5086482;28;20686;-76
2021/04/19 05:35:19;;;;;;;21.07;13.43;;;;;;;;;;5078229;28;20182;-77
2021/04/19 05:37:46;;;;;;;16.15;12.48;;;;;;;;;;5074325;28;20415;-77
2021/04/19 05:40:12;;;;;;;21.75;15.25;;;;;;;;;;5072841;28;20184;-77
2021/04/19 05:42:38;;;;;;;13.90;12.52;;;;;;;;;;5074164;28;20688;-77
2021/04/19 05:45:07;;;;;;;19.00;14.82;;;;;;;;;;5072483;28;20586;-77
2021/04/19 05:47:33;;;;;;;18.88;14.82;;;;;;;;;;5074286;28;20201;-78
2021/04/19 05:49:59;;;;;;;18.60;15.20;;;;;;;;;;5069993;28;20551;-77
2021/04/19 05:52:25;;;;;;;20.83;16.27;;;;;;;;;;5069289;28;20470;-77
2021/04/19 05:54:51;;;;;;;19.30;17.25;;;;;;;;;;5063998;28;20824;-77
2021/04/19 05:57:33;;;;;;;21.70;17.90;;;;;;;;;;5064409;28;20548;-77
2021/04/19 06:00:02;;;;;;;24.90;16.67;;;;;;;;;;5069015;28;20205;-77
2021/04/19 06:02:34;;;;;;;24.20;18.33;;;;;;;;;;5064558;28;20205;-77
2021/04/19 06:05:03;;;;;;;26.48;18.88;;;;;;;;;;5066079;28;20204;-77
2021/04/19 06:07:38;;;;;;;21.35;17.35;;;;;;;;;;5070267;28;20205;-77
2021/04/19 06:10:10;;;;;;;22.60;19.20;;;;;;;;;;5067976;28;20252;-77
2021/04/19 06:12:38;;;;;;;21.38;18.10;;;;;;;;;;5073315;28;20204;-76
2021/04/19 06:15:13;;;;;;;23.05;18.73;;;;;;;;;;5072440;28;20575;-77
2021/04/19 06:17:40;;;;;;;21.65;18.05;;;;;;;;;;5088456;28;20178;-76
2021/04/19 06:20:07;;;;;;;21.15;18.48;;;;;;;;;;5072394;28;20531;-76
2021/04/19 06:22:33;;;;;;;21.17;18.52;;;;;;;;;;5070276;28;20249;-76
2021/04/19 06:24:59;;;;;;;24.70;18.45;;;;;;;;;;5052039;28;20252;-76
2021/04/19 06:27:26;;;;;;;21.03;18.83;;;;;;;;;;5073032;28;20268;-76
2021/04/19 06:29:52;;;;;;;22.45;19.15;;;;;;;;;;5073887;28;21046;-77
2021/04/19 06:32:21;;;;;;;27.20;21.27;;;;;;;;;;5072969;28;20232;-77
2021/04/19 06:34:48;;;;;;;23.95;20.63;;;;;;;;;;5076075;28;20168;-77
2021/04/19 06:37:14;;;;;;;27.73;21.77;;;;;;;;;;5093456;28;20173;-76
2021/04/19 06:39:40;;;;;;;34.13;23.55;;;;;;;;;;5086598;28;20174;-76
2021/04/19 06:42:06;;;;;;;28.50;21.73;;;;;;;;;;5072556;28;20197;-77
2021/04/19 06:44:32;;;;;;;26.20;22.40;;;;;;;;;;5069752;28;20993;-77
2021/04/19 06:46:58;;;;;;;29.40;21.90;;;;;;;;;;5072302;28;20520;-77
2021/04/19 06:49:25;;;;;;;28.42;23.52;;;;;;;;;;5089941;28;20179;-76
2021/04/19 06:51:52;;;;;;;28.95;24.20;;;;;;;;;;5075315;28;20199;-77
2021/04/19 06:54:18;;;;;;;29.75;25.80;;;;;;;;;;5071640;28;20619;-76
2021/04/19 06:56:46;;;;;;;30.70;25.20;;;;;;;;;;5072362;28;20185;-77
2021/04/19 06:59:14;;;;;;;36.72;26.83;;;;;;;;;;5073250;28;20234;-78
2021/04/19 07:01:41;;;;;;;31.45;27.85;;;;;;;;;;5072811;28;20202;-77
2021/04/19 07:04:11;;;;;;;30.67;27.27;;;;;;;;;;5071851;28;20212;-76
2021/04/19 07:06:38;;;;;;;37.75;27.52;;;;;;;;;;5072800;28;20194;-76
2021/04/19 07:09:24;;;;;;;34.00;28.73;;;;;;;;;;5072548;28;20542;-77
2021/04/19 07:12:10;;;;;;;33.30;26.80;;;;;;;;;;5072233;28;20291;-77
2021/04/19 07:14:38;;;;;;;32.30;27.08;;;;;;;;;;5072393;28;20192;-78
2021/04/19 07:17:05;;;;;;;33.97;27.02;;;;;;;;;;5072431;28;20668;-77
2021/04/19 07:19:31;;;;;;;33.42;26.92;;;;;;;;;;5068563;28;20178;-77
2021/04/19 07:21:57;;;;;;;31.50;26.65;;;;;;;;;;5063578;28;20203;-77
2021/04/19 07:24:27;;;;;;;36.22;27.23;;;;;;;;;;5035978;28;20694;-76
2021/04/19 07:26:53;;;;;;;28.52;25.02;;;;;;;;;;5062939;28;20309;-76
2021/04/19 07:29:19;;;;;;;33.80;26.40;;;;;;;;;;5069401;28;20181;-76
2021/04/19 07:31:46;;;;;;;34.03;26.97;;;;;;;;;;5070330;28;20230;-76
2021/04/19 07:34:16;;;;;;;29.73;25.73;;;;;;;;;;5072569;28;20413;-76
2021/04/19 07:36:48;;;;;;;31.38;25.73;;;;;;;;;;5072276;28;20549;-77
2021/04/19 07:39:15;;;;;;;35.63;25.65;;;;;;;;;;5072320;28;20174;-76
2021/04/19 07:41:46;;;;;;;30.23;26.92;;;;;;;;;;5071711;28;20590;-76
2021/04/19 07:44:12;;;;;;;35.67;27.92;;;;;;;;;;5065927;28;20737;-76
2021/04/19 07:46:38;;;;;;;29.77;25.67;;;;;;;;;;5062599;28;20861;-77
2021/04/19 07:49:08;;;;;;;36.55;29.80;;;;;;;;;;5086007;28;20176;-77
2021/04/19 07:51:38;;;;;;;33.28;29.77;;;;;;;;;;5091899;28;20637;-77
2021/04/19 07:54:15;;;;;;;34.95;28.75;;;;;;;;;;5085499;28;20179;-78
2021/04/19 07:57:05;;;;;;;33.95;27.02;;;;;;;;;;5092024;28;20597;-77
2021/04/19 07:59:35;;;;;;;36.75;27.75;;;;;;;;;;5082347;28;20185;-77
2021/04/19 08:02:04;;;;;;;36.00;26.85;;;;;;;;;;5075612;28;20230;-77
2021/04/19 08:04:30;;;;;;;33.63;29.52;;;;;;;;;;5061844;28;20226;-77
2021/04/19 08:06:57;;;;;;;33.15;29.60;;;;;;;;;;5091510;28;20222;-77
2021/04/19 08:09:27;;;;;;;34.60;28.15;;;;;;;;;;5091898;28;20174;-77
2021/04/19 08:11:59;;;;;;;39.10;29.75;;;;;;;;;;5073468;28;20205;-77
2021/04/19 08:14:31;;;;;;;32.45;28.10;;;;;;;;;;5091914;28;20797;-77
2021/04/19 08:17:04;;;;;;;34.10;30.23;;;;;;;;;;5079676;28;20184;-77
2021/04/19 08:19:33;;;;;;;34.90;28.63;;;;;;;;;;5070637;28;20211;-77
2021/04/19 08:22:11;;;;;;;45.45;30.10;;;;;;;;;;5071056;28;20550;-77
2021/04/19 08:24:37;;;;;;;32.17;28.92;;;;;;;;;;5058318;28;20213;-77
2021/04/19 08:27:03;;;;;;;35.87;32.10;;;;;;;;;;5069916;28;20591;-77
2021/04/19 08:29:44;;;;;;;39.10;32.15;;;;;;;;;;5084592;28;20477;-77
2021/04/19 08:32:11;;;;;;;46.97;35.05;;;;;;;;;;5071009;28;20197;-77
2021/04/19 08:34:38;;;;;;;42.22;34.53;;;;;;;;;;5080586;28;20229;-77
2021/04/19 08:37:05;;;;;;;41.95;31.67;;;;;;;;;;5080449;28;20189;-77
2021/04/19 08:39:33;;;;;;;35.65;27.60;;;;;;;;;;5071481;28;20248;-77
2021/04/19 08:41:59;;;;;;;40.45;32.10;;;;;;;;;;5070206;28;20193;-77
2021/04/19 08:44:26;;;;;;;40.83;32.75;;;;;;;;;;5088557;28;20292;-76
2021/04/19 08:46:52;;;;;;;38.80;31.42;;;;;;;;;;5091007;28;20555;-77
2021/04/19 08:49:18;;;;;;;35.70;31.30;;;;;;;;;;5059991;28;20189;-77
2021/04/19 08:51:44;;;;;;;37.35;30.67;;;;;;;;;;5069468;28;20459;-77
2021/04/19 08:54:10;;;;;;;37.27;28.63;;;;;;;;;;5058752;28;20543;-76
2021/04/19 08:56:36;;;;;;;40.57;28.93;;;;;;;;;;5071273;28;20876;-77
2021/04/19 08:59:02;;;;;;;31.40;26.30;;;;;;;;;;5071651;28;20941;-77
2021/04/19 09:01:31;;;;;;;29.55;25.77;;;;;;;;;;5079316;28;20489;-77
2021/04/19 09:04:05;;;;;;;30.85;25.10;;;;;;;;;;5070872;28;20175;-76
2021/04/19 09:06:41;;;;;;;27.38;24.08;;;;;;;;;;5071028;28;20616;-76
2021/04/19 09:09:07;;;;;;;26.92;22.17;;;;;;;;;;5064685;28;20541;-76
2021/04/19 09:11:33;;;;;;;27.48;22.55;;;;;;;;;;5070767;28;20227;-77
2021/04/19 09:14:03;;;;;;;25.75;23.00;;;;;;;;;;5071095;28;20169;-77
2021/04/19 09:16:34;;;;;;;26.52;22.63;;;;;;;;;;5072056;28;20200;-77
2021/04/19 09:19:01;;;;;;;28.65;21.83;;;;;;;;;;5074629;28;20165;-77
2021/04/19 09:21:37;;;;;;;25.60;22.77;;;;;;;;;;5074477;28;20169;-76
2021/04/19 09:24:04;;;;;;;28.73;23.02;;;;;;;;;;5073576;28;20239;-77
2021/04/19 09:26:49;;;;;;;24.48;21.83;;;;;;;;;;5054415;28;20178;-77
2021/04/19 09:29:30;;;;;;;27.00;22.80;;;;;;;;;;5089254;28;20259;-77
2021/04/19 09:31:56;;;;;;;26.50;23.75;;;;;;;;;;5068675;28;20210;-77
2021/04/19 09:34:40;;;;;;;29.00;24.47;;;;;;;;;;5073973;28;20173;-76
2021/04/19 09:37:07;;;;;;;26.30;23.17;;;;;;;;;;5088849;28;20407;-77
2021/04/19 09:39:43;;;;;;;28.45;25.65;;;;;;;;;;5074453;28;20283;-77
2021/04/19 09:42:09;;;;;;;30.08;26.67;;;;;;;;;;5060503;28;20205;-77
2021/04/19 09:44:48;;;;;;;32.80;28.83;;;;;;;;;;5074195;28;20200;-77
2021/04/19 09:47:34;;;;;;;30.05;24.92;;;;;;;;;;5078531;28;20598;-77
2021/04/19 09:50:00;;;;;;;32.20;25.05;;;;;;;;;;5080110;28;20180;-77
2021/04/19 09:52:26;;;;;;;29.33;26.00;;;;;;;;;;5094088;28;20231;-76
2021/04/19 09:54:52;;;;;;;27.38;22.50;;;;;;;;;;5094313;28;20176;-77
2021/04/19 09:57:18;;;;;;;27.55;22.98;;;;;;;;;;5085260;28;20194;-77
2021/04/19 09:59:44;;;;;;;32.90;25.27;;;;;;;;;;5091017;28;20212;-78
2021/04/19 10:02:12;;;;;;;26.00;23.30;;;;;;;;;;5093764;28;20230;-77
2021/04/19 10:04:42;;;;;;;39.13;27.92;;;;;;;;;;5093752;28;20465;-77
2021/04/19 10:07:08;;;;;;;30.02;26.67;;;;;;;;;;5062977;28;20767;-77
2021/04/19 10:09:35;;;;;;;41.75;32.80;;;;;;;;;;5053780;28;20180;-77
2021/04/19 10:12:03;;;;;;;35.58;31.20;;;;;;;;;;5053261;28;20228;-77
2021/04/19 10:14:36;;;;;;;36.97;31.50;;;;;;;;;;5053722;28;20551;-77
2021/04/19 10:17:12;;;;;;;41.30;32.65;;;;;;;;;;5054033;28;20667;-77
2021/04/19 10:19:38;;;;;;;40.97;32.28;;;;;;;;;;5055956;28;20180;-77
2021/04/19 10:22:05;;;;;;;35.37;30.77;;;;;;;;;;5073404;28;20668;-77
2021/04/19 10:24:32;;;;;;;35.60;30.30;;;;;;;;;;5054854;28;21004;-77
2021/04/19 10:26:58;;;;;;;33.83;30.33;;;;;;;;;;5073492;28;20214;-75
2021/04/19 10:29:27;;;;;;;31.97;28.53;;;;;;;;;;5081705;28;20635;-76
2021/04/19 10:31:57;;;;;;;33.97;29.02;;;;;;;;;;5057335;28;20422;-77
2021/04/19 10:34:27;;;;;;;33.55;29.55;;;;;;;;;;5086591;28;20188;-76
2021/04/19 10:36:55;;;;;;;34.40;29.60;;;;;;;;;;5093626;28;20185;-77
2021/04/19 10:39:22;;;;;;;38.45;31.23;;;;;;;;;;5084846;28;20203;-76
2021/04/19 10:41:49;;;;;;;35.50;28.05;;;;;;;;;;5087267;28;20233;-76
2021/04/19 10:44:15;;;;;;;34.88;30.98;;;;;;;;;;5089073;28;20708;-77
2021/04/19 10:46:43;;;;;;;31.58;28.17;;;;;;;;;;5071122;28;20182;-77
2021/04/19 10:49:20;;;;;;;31.53;28.13;;;;;;;;;;5073054;28;20182;-76
2021/04/19 10:51:50;;;;;;;27.37;24.70;;;;;;;;;;5072644;28;20400;-77
2021/04/19 10:54:16;;;;;;;34.90;31.17;;;;;;;;;;5073427;28;20758;-77
2021/04/19 10:56:43;;;;;;;33.67;27.30;;;;;;;;;;5073175;28;20434;-77
2021/04/19 10:59:09;;;;;;;29.63;26.73;;;;;;;;;;5073171;28;20909;-77
2021/04/19 11:01:37;;;;;;;29.37;26.47;;;;;;;;;;5071547;28;20406;-77
2021/04/19 11:04:08;;;;;;;28.57;25.67;;;;;;;;;;5081046;28;20392;-77
2021/04/19 11:06:34;;;;;;;29.20;26.40;;;;;;;;;;5092926;28;20399;-78
2021/04/19 11:09:01;;;;;;;27.70;24.97;;;;;;;;;;5074985;28;20417;-78
2021/04/19 11:11:37;;;;;;;26.13;23.57;;;;;;;;;;5092621;28;20408;-77
2021/04/19 11:14:18;;;;;;;23.87;21.67;;;;;;;;;;5091161;22;587849;-78
2021/04/19 11:16:53;;;;;;;20.60;18.80;;;;;;;;;;5087018;28;20405;-76
2021/04/19 11:19:40;;;;;;;22.20;20.17;;;;;;;;;;5075995;28;20444;-77
2021/04/19 11:22:20;;;;;;;21.60;19.70;;;;;;;;;;5074691;28;20457;-77
2021/04/19 11:24:47;;;;;;;22.47;20.40;;;;;;;;;;5070478;28;20463;-76
2021/04/19 11:27:13;;;;;;;21.23;18.90;;;;;;;;;;5069460;28;20419;-77
2021/04/19 11:29:40;;;;;;;22.23;20.07;;;;;;;;;;5052486;28;20471;-76
2021/04/19 11:32:06;;;;;;;17.90;16.30;;;;;;;;;;5052067;28;20415;-76
2021/04/19 11:34:36;;;;;;;20.80;18.90;;;;;;;;;;5040884;28;20589;-77
2021/04/19 11:37:03;;;;;;;19.87;17.77;;;;;;;;;;5072549;28;20966;-77
2021/04/19 11:39:32;;;;;;;18.43;16.73;;;;;;;;;;5072320;28;20408;-77
2021/04/19 11:41:58;;;;;;;20.03;18.30;;;;;;;;;;5071383;28;20766;-76
2021/04/19 11:44:43;;;;;;;19.77;17.97;;;;;;;;;;5071817;28;20510;-77
2021/04/19 11:47:09;;;;;;;16.67;15.30;;;;;;;;;;5032152;28;20415;-76
2021/04/19 11:49:34;;;;;;;17.13;15.63;;;;;;;;;;5049463;28;20511;-76
2021/04/19 11:52:00;;;;;;;17.10;15.63;;;;;;;;;;5051706;28;20416;-76
2021/04/19 11:54:26;;;;;;;17.77;16.17;;;;;;;;;;5051929;28;20436;-77
2021/04/19 11:56:52;;;;;;;16.80;15.30;;;;;;;;;;5051451;28;20478;-77
2021/04/19 11:59:18;;;;;;;15.93;14.30;;;;;;;;;;5051851;28;20414;-76
2021/04/19 12:01:44;;;;;;;16.40;14.83;;;;;;;;;;5051631;28;20432;-76
2021/04/19 12:04:12;;;;;;;16.57;15.07;;;;;;;;;;5055830;28;20454;-77
2021/04/19 12:06:38;;;;;;;16.87;15.20;;;;;;;;;;5070165;28;20432;-76
2021/04/19 12:09:04;;;;;;;15.30;13.90;;;;;;;;;;5071666;28;20407;-77
2021/04/19 12:11:30;;;;;;;16.10;14.60;;;;;;;;;;5071639;28;20422;-77
2021/04/19 12:14:01;;;;;;;16.83;15.43;;;;;;;;;;5071737;28;20422;-76
2021/04/19 12:16:28;;;;;;;14.17;13.00;;;;;;;;;;5071795;28;20395;-77
2021/04/19 12:18:54;;;;;;;14.60;13.30;;;;;;;;;;5071744;28;20913;-77
2021/04/19 12:21:20;;;;;;;12.17;11.17;;;;;;;;;;5071882;28;20426;-77
2021/04/19 12:23:46;;;;;;;15.87;14.57;;;;;;;;;;5071278;28;20449;-77
2021/04/19 12:26:12;;;;;;;16.60;15.13;;;;;;;;;;5071635;28;20560;-77
2021/04/19 12:28:38;;;;;;;15.00;13.73;;;;;;;;;;5046632;28;20440;-76
2021/04/19 12:31:04;;;;;;;16.10;14.73;;;;;;;;;;5031902;28;20427;-77
2021/04/19 12:33:30;;;;;;;15.67;14.37;;;;;;;;;;5039198;28;20456;-77
2021/04/19 12:35:56;;;;;;;15.50;14.20;;;;;;;;;;5071533;28;20501;-77
2021/04/19 12:38:21;;;;;;;15.30;13.67;;;;;;;;;;5071707;28;20462;-77
2021/04/19 12:40:47;;;;;;;14.07;12.63;;;;;;;;;;5071535;28;20425;-77
2021/04/19 12:43:13;;;;;;;15.17;13.97;;;;;;;;;;5071387;28;20418;-77
2021/04/19 12:45:43;;;;;;;13.93;12.73;;;;;;;;;;5053475;28;20563;-77
2021/04/19 12:48:09;;;;;;;16.97;15.27;;;;;;;;;;5071873;28;20437;-77
2021/04/19 12:50:37;;;;;;;14.67;13.53;;;;;;;;;;5053802;28;20431;-77
2021/04/19 12:53:04;;;;;;;13.77;12.60;;;;;;;;;;5055031;28;20416;-77
2021/04/19 12:55:30;;;;;;;13.13;12.03;;;;;;;;;;5055329;28;20491;-77
2021/04/19 12:57:56;;;;;;;15.23;13.77;;;;;;;;;;5055402;28;20437;-77
2021/04/19 13:00:22;;;;;;;15.70;14.40;;;;;;;;;;5052916;28;20872;-77
2021/04/19 13:02:48;;;;;;;15.13;13.93;;;;;;;;;;5055333;28;20941;-77
2021/04/19 13:05:17;;;;;;;15.77;14.47;;;;;;;;;;5071131;28;20458;-77
2021/04/19 13:07:44;;;;;;;15.03;13.73;;;;;;;;;;5041873;28;20516;-77
2021/04/19 13:10:11;;;;;;;15.57;14.27;;;;;;;;;;5035491;28;20428;-77
2021/04/19 13:12:37;;;;;;;14.30;13.10;;;;;;;;;;5038333;28;20455;-79
2021/04/19 13:15:03;;;;;;;14.70;13.30;;;;;;;;;;5057101;28;20465;-78
2021/04/19 13:17:29;;;;;;;14.03;12.83;;;;;;;;;;5049822;28;20443;-77
2021/04/19 13:19:56;;;;;;;15.43;14.13;;;;;;;;;;5055447;28;20436;-77
2021/04/19 13:22:22;;;;;;;15.70;14.20;;;;;;;;;;5060533;28;20966;-77
2021/04/19 13:24:48;;;;;;;14.30;13.10;;;;;;;;;;5059744;28;20631;-77
2021/04/19 13:27:14;;;;;;;15.17;13.77;;;;;;;;;;5058384;28;20468;-77
2021/04/19 13:29:40;;;;;;;16.50;14.90;;;;;;;;;;5055616;28;20439;-77
2021/04/19 13:32:06;;;;;;;17.13;15.63;;;;;;;;;;5055941;28;20420;-76
2021/04/19 13:34:32;;;;;;;20.83;18.77;;;;;;;;;;5063533;28;20469;-76
2021/04/19 13:36:58;;;;;;;19.27;17.13;;;;;;;;;;5056633;28;20418;-77
2021/04/19 13:39:24;;;;;;;18.43;16.57;;;;;;;;;;5055655;28;20932;-77
2021/04/19 13:41:50;;;;;;;18.33;16.50;;;;;;;;;;5054651;28;20792;-76
2021/04/19 13:44:16;;;;;;;19.13;17.27;;;;;;;;;;5051940;28;20453;-74
2021/04/19 13:46:41;;;;;;;18.37;16.67;;;;;;;;;;5040546;28;20428;-76
2021/04/19 13:49:07;;;;;;;18.03;16.43;;;;;;;;;;5044102;28;20451;-76
2021/04/19 13:51:34;;;;;;;19.50;17.73;;;;;;;;;;5044722;28;20428;-75
2021/04/19 13:54:00;;;;;;;19.10;16.63;;;;;;;;;;5044191;28;21044;-76
2021/04/19 13:56:26;;;;;;;20.73;18.63;;;;;;;;;;5042609;28;20436;-77
2021/04/19 13:58:52;;;;;;;20.90;18.80;;;;;;;;;;5053495;28;20447;-76
2021/04/19 14:01:18;;;;;;;21.83;19.63;;;;;;;;;;5052931;28;20403;-76
2021/04/19 14:03:44;;;;;;;22.87;20.80;;;;;;;;;;5048270;28;20456;-76
2021/04/19 14:06:10;;;;;;;21.10;19.00;;;;;;;;;;5053538;28;20475;-76
2021/04/19 14:08:36;;;;;;;22.07;19.90;;;;;;;;;;5052265;28;20931;-75
2021/04/19 14:11:02;;;;;;;22.70;20.50;;;;;;;;;;5063944;28;20413;-77
2021/04/19 14:13:28;;;;;;;24.17;21.67;;;;;;;;;;5058459;28;20422;-77
2021/04/19 14:15:54;;;;;;;22.77;20.33;;;;;;;;;;5065510;28;20534;-77
2021/04/19 14:18:20;;;;;;;21.97;19.87;;;;;;;;;;5053504;28;20423;-77
2021/04/19 14:20:46;;;;;;;23.33;21.03;;;;;;;;;;5051908;28;20407;-77
2021/04/19 14:23:13;;;;;;;25.13;21.23;;;;;;;;;;5051450;28;23304;-77
2021/04/19 14:25:39;;;;;;;23.20;21.00;;;;;;;;;;5046341;28;20472;-77
2021/04/19 14:28:05;;;;;;;25.27;22.80;;;;;;;;;;5052448;28;20431;-77